sensor_id;sensor_type;location;lat;lon;timestamp;P1;durP1;ratioP1;P2;durP2;ratioP2
61358;SDS011;47228;46.762;23.598;2022-09-09T00:04:43;23.60;;;11.60;;
61358;SDS011;47228;46.762;23.598;2022-09-09T00:12:59;24.30;;;12.30;;
61358;SDS011;47228;46.762;23.598;2022-09-09T00:18:30;25.10;;;13.70;;
61358;SDS011;47228;46.762;23.598;2022-09-09T00:21:18;17.80;;;12.40;;
61358;SDS011;47228;46.762;23.598;2022-09-09T00:23:50;17.60;;;12.20;;
61358;SDS011;47228;46.762;23.598;2022-09-09T00:29:12;14.70;;;11.20;;
61358;SDS011;47228;46.762;23.598;2022-09-09T00:36:42;15.30;;;11.00;;
61358;SDS011;47228;46.762;23.598;2022-09-09T00:47:45;16.20;;;12.90;;
61358;SDS011;47228;46.762;23.598;2022-09-09T00:56:13;15.00;;;11.50;;
61358;SDS011;47228;46.762;23.598;2022-09-09T00:58:58;21.90;;;13.00;;
61358;SDS011;47228;46.762;23.598;2022-09-09T01:01:36;18.60;;;13.60;;
61358;SDS011;47228;46.762;23.598;2022-09-09T01:04:14;18.20;;;13.30;;
61358;SDS011;47228;46.762;23.598;2022-09-09T01:12:23;15.50;;;11.80;;
61358;SDS011;47228;46.762;23.598;2022-09-09T01:14:58;15.10;;;12.30;;
61358;SDS011;47228;46.762;23.598;2022-09-09T01:20:27;13.40;;;10.50;;
61358;SDS011;47228;46.762;23.598;2022-09-09T01:28:28;16.70;;;11.30;;
61358;SDS011;47228;46.762;23.598;2022-09-09T01:31:03;15.20;;;10.80;;
61358;SDS011;47228;46.762;23.598;2022-09-09T01:33:40;15.60;;;10.70;;
61358;SDS011;47228;46.762;23.598;2022-09-09T01:36:09;12.70;;;9.40;;
61358;SDS011;47228;46.762;23.598;2022-09-09T01:38:49;14.40;;;11.20;;
61358;SDS011;47228;46.762;23.598;2022-09-09T01:41:18;15.00;;;11.00;;
61358;SDS011;47228;46.762;23.598;2022-09-09T01:43:52;17.90;;;12.10;;
61358;SDS011;47228;46.762;23.598;2022-09-09T01:46:22;18.90;;;11.40;;
61358;SDS011;47228;46.762;23.598;2022-09-09T01:48:52;15.10;;;11.20;;
61358;SDS011;47228;46.762;23.598;2022-09-09T01:51:21;17.20;;;12.40;;
61358;SDS011;47228;46.762;23.598;2022-09-09T01:53:51;18.10;;;12.30;;
61358;SDS011;47228;46.762;23.598;2022-09-09T01:59:07;15.40;;;11.60;;
61358;SDS011;47228;46.762;23.598;2022-09-09T02:02:09;14.40;;;11.10;;
61358;SDS011;47228;46.762;23.598;2022-09-09T02:04:55;17.80;;;12.60;;
61358;SDS011;47228;46.762;23.598;2022-09-09T02:07:48;18.90;;;13.40;;
61358;SDS011;47228;46.762;23.598;2022-09-09T02:11:11;20.90;;;14.00;;
61358;SDS011;47228;46.762;23.598;2022-09-09T02:13:35;14.30;;;11.90;;
61358;SDS011;47228;46.762;23.598;2022-09-09T02:16:08;14.70;;;11.10;;
61358;SDS011;47228;46.762;23.598;2022-09-09T02:22:00;16.70;;;12.90;;
61358;SDS011;47228;46.762;23.598;2022-09-09T02:24:30;14.80;;;11.00;;
61358;SDS011;47228;46.762;23.598;2022-09-09T02:27:11;14.60;;;9.10;;
61358;SDS011;47228;46.762;23.598;2022-09-09T02:29:42;17.00;;;9.80;;
61358;SDS011;47228;46.762;23.598;2022-09-09T02:32:15;16.90;;;12.20;;
61358;SDS011;47228;46.762;23.598;2022-09-09T02:34:52;21.10;;;12.30;;
61358;SDS011;47228;46.762;23.598;2022-09-09T02:37:26;21.10;;;10.90;;
61358;SDS011;47228;46.762;23.598;2022-09-09T02:39:59;15.40;;;10.20;;
61358;SDS011;47228;46.762;23.598;2022-09-09T02:42:29;11.50;;;8.70;;
61358;SDS011;47228;46.762;23.598;2022-09-09T02:44:58;14.80;;;10.30;;
61358;SDS011;47228;46.762;23.598;2022-09-09T02:47:30;13.90;;;9.60;;
61358;SDS011;47228;46.762;23.598;2022-09-09T02:50:25;15.00;;;9.70;;
61358;SDS011;47228;46.762;23.598;2022-09-09T02:58:09;12.50;;;8.70;;
61358;SDS011;47228;46.762;23.598;2022-09-09T03:00:53;13.90;;;10.00;;
61358;SDS011;47228;46.762;23.598;2022-09-09T03:03:23;15.30;;;10.80;;
61358;SDS011;47228;46.762;23.598;2022-09-09T03:05:52;15.90;;;9.50;;
61358;SDS011;47228;46.762;23.598;2022-09-09T03:08:20;15.10;;;9.30;;
61358;SDS011;47228;46.762;23.598;2022-09-09T03:10:48;13.60;;;9.80;;
61358;SDS011;47228;46.762;23.598;2022-09-09T03:13:16;13.20;;;8.60;;
61358;SDS011;47228;46.762;23.598;2022-09-09T03:15:47;14.90;;;10.60;;
61358;SDS011;47228;46.762;23.598;2022-09-09T03:18:17;15.10;;;11.50;;
61358;SDS011;47228;46.762;23.598;2022-09-09T03:20:47;13.10;;;10.40;;
61358;SDS011;47228;46.762;23.598;2022-09-09T03:23:19;13.20;;;9.70;;
61358;SDS011;47228;46.762;23.598;2022-09-09T03:25:51;17.10;;;9.60;;
61358;SDS011;47228;46.762;23.598;2022-09-09T03:28:25;12.60;;;9.60;;
61358;SDS011;47228;46.762;23.598;2022-09-09T03:31:00;15.80;;;11.50;;
61358;SDS011;47228;46.762;23.598;2022-09-09T03:33:31;13.20;;;11.20;;
61358;SDS011;47228;46.762;23.598;2022-09-09T03:35:59;15.90;;;10.50;;
61358;SDS011;47228;46.762;23.598;2022-09-09T03:38:27;16.40;;;10.70;;
61358;SDS011;47228;46.762;23.598;2022-09-09T03:40:56;15.00;;;9.60;;
61358;SDS011;47228;46.762;23.598;2022-09-09T03:43:28;17.90;;;11.90;;
61358;SDS011;47228;46.762;23.598;2022-09-09T03:45:57;15.30;;;12.00;;
61358;SDS011;47228;46.762;23.598;2022-09-09T03:48:26;15.80;;;10.70;;
61358;SDS011;47228;46.762;23.598;2022-09-09T03:50:56;14.50;;;10.20;;
61358;SDS011;47228;46.762;23.598;2022-09-09T03:53:26;13.70;;;9.30;;
61358;SDS011;47228;46.762;23.598;2022-09-09T03:55:57;14.90;;;11.60;;
61358;SDS011;47228;46.762;23.598;2022-09-09T03:58:28;15.00;;;11.50;;
61358;SDS011;47228;46.762;23.598;2022-09-09T04:01:05;15.30;;;11.40;;
61358;SDS011;47228;46.762;23.598;2022-09-09T04:03:38;15.60;;;10.20;;
61358;SDS011;47228;46.762;23.598;2022-09-09T04:06:08;12.00;;;9.70;;
61358;SDS011;47228;46.762;23.598;2022-09-09T04:08:39;15.40;;;11.60;;
61358;SDS011;47228;46.762;23.598;2022-09-09T04:11:09;21.00;;;12.50;;
61358;SDS011;47228;46.762;23.598;2022-09-09T04:13:37;14.70;;;11.20;;
61358;SDS011;47228;46.762;23.598;2022-09-09T04:16:09;14.50;;;10.70;;
61358;SDS011;47228;46.762;23.598;2022-09-09T04:18:40;16.80;;;10.40;;
61358;SDS011;47228;46.762;23.598;2022-09-09T04:21:08;15.20;;;12.20;;
61358;SDS011;47228;46.762;23.598;2022-09-09T04:23:40;16.30;;;13.10;;
61358;SDS011;47228;46.762;23.598;2022-09-09T04:26:09;15.10;;;11.80;;
61358;SDS011;47228;46.762;23.598;2022-09-09T04:28:37;13.40;;;10.70;;
61358;SDS011;47228;46.762;23.598;2022-09-09T04:31:20;12.50;;;10.30;;
61358;SDS011;47228;46.762;23.598;2022-09-09T04:33:53;18.00;;;12.50;;
61358;SDS011;47228;46.762;23.598;2022-09-09T04:36:22;17.60;;;12.70;;
61358;SDS011;47228;46.762;23.598;2022-09-09T04:38:52;14.90;;;11.60;;
61358;SDS011;47228;46.762;23.598;2022-09-09T04:41:20;15.60;;;11.10;;
61358;SDS011;47228;46.762;23.598;2022-09-09T04:43:50;15.00;;;11.00;;
61358;SDS011;47228;46.762;23.598;2022-09-09T04:46:21;14.60;;;11.60;;
61358;SDS011;47228;46.762;23.598;2022-09-09T04:48:51;14.20;;;12.20;;
61358;SDS011;47228;46.762;23.598;2022-09-09T04:51:21;17.60;;;13.10;;
61358;SDS011;47228;46.762;23.598;2022-09-09T04:53:49;16.30;;;12.40;;
61358;SDS011;47228;46.762;23.598;2022-09-09T04:56:18;16.30;;;12.10;;
61358;SDS011;47228;46.762;23.598;2022-09-09T04:58:51;16.30;;;11.60;;
61358;SDS011;47228;46.762;23.598;2022-09-09T05:01:21;15.90;;;13.20;;
61358;SDS011;47228;46.762;23.598;2022-09-09T05:03:53;16.40;;;13.20;;
61358;SDS011;47228;46.762;23.598;2022-09-09T05:06:23;17.60;;;12.30;;
61358;SDS011;47228;46.762;23.598;2022-09-09T05:08:57;15.00;;;12.20;;
61358;SDS011;47228;46.762;23.598;2022-09-09T05:11:29;17.60;;;12.70;;
61358;SDS011;47228;46.762;23.598;2022-09-09T05:14:03;14.60;;;11.60;;
61358;SDS011;47228;46.762;23.598;2022-09-09T05:16:32;14.80;;;12.60;;
61358;SDS011;47228;46.762;23.598;2022-09-09T05:19:00;20.60;;;16.10;;
61358;SDS011;47228;46.762;23.598;2022-09-09T05:24:12;20.00;;;12.70;;
61358;SDS011;47228;46.762;23.598;2022-09-09T05:26:41;21.10;;;13.50;;
61358;SDS011;47228;46.762;23.598;2022-09-09T05:29:09;14.20;;;11.90;;
61358;SDS011;47228;46.762;23.598;2022-09-09T05:31:38;16.60;;;13.50;;
61358;SDS011;47228;46.762;23.598;2022-09-09T05:34:10;17.70;;;14.50;;
61358;SDS011;47228;46.762;23.598;2022-09-09T05:36:39;17.40;;;14.20;;
61358;SDS011;47228;46.762;23.598;2022-09-09T05:39:07;34.80;;;13.90;;
61358;SDS011;47228;46.762;23.598;2022-09-09T05:41:35;27.10;;;13.00;;
61358;SDS011;47228;46.762;23.598;2022-09-09T05:44:04;26.60;;;13.10;;
61358;SDS011;47228;46.762;23.598;2022-09-09T05:46:36;28.20;;;15.60;;
61358;SDS011;47228;46.762;23.598;2022-09-09T05:49:05;24.10;;;14.20;;
61358;SDS011;47228;46.762;23.598;2022-09-09T05:51:34;24.00;;;14.10;;
61358;SDS011;47228;46.762;23.598;2022-09-09T05:54:06;16.80;;;12.40;;
61358;SDS011;47228;46.762;23.598;2022-09-09T05:56:37;20.10;;;13.00;;
61358;SDS011;47228;46.762;23.598;2022-09-09T05:59:06;25.20;;;14.30;;
61358;SDS011;47228;46.762;23.598;2022-09-09T06:01:35;24.20;;;15.80;;
61358;SDS011;47228;46.762;23.598;2022-09-09T06:04:11;19.30;;;13.60;;
61358;SDS011;47228;46.762;23.598;2022-09-09T06:06:40;17.50;;;13.00;;
61358;SDS011;47228;46.762;23.598;2022-09-09T06:09:15;17.90;;;12.30;;
61358;SDS011;47228;46.762;23.598;2022-09-09T06:11:44;18.00;;;13.70;;
61358;SDS011;47228;46.762;23.598;2022-09-09T06:14:14;17.20;;;14.10;;
61358;SDS011;47228;46.762;23.598;2022-09-09T06:16:44;15.10;;;13.10;;
61358;SDS011;47228;46.762;23.598;2022-09-09T06:19:17;17.60;;;12.80;;
61358;SDS011;47228;46.762;23.598;2022-09-09T06:21:45;18.20;;;14.30;;
61358;SDS011;47228;46.762;23.598;2022-09-09T06:24:16;19.60;;;15.50;;
61358;SDS011;47228;46.762;23.598;2022-09-09T06:26:46;19.70;;;15.10;;
61358;SDS011;47228;46.762;23.598;2022-09-09T06:29:24;21.30;;;15.80;;
61358;SDS011;47228;46.762;23.598;2022-09-09T06:31:52;23.90;;;17.60;;
61358;SDS011;47228;46.762;23.598;2022-09-09T06:34:22;21.50;;;17.90;;
61358;SDS011;47228;46.762;23.598;2022-09-09T06:36:53;25.70;;;19.30;;
61358;SDS011;47228;46.762;23.598;2022-09-09T06:39:22;26.50;;;19.60;;
61358;SDS011;47228;46.762;23.598;2022-09-09T06:41:51;24.30;;;19.40;;
61358;SDS011;47228;46.762;23.598;2022-09-09T06:44:39;24.00;;;18.40;;
61358;SDS011;47228;46.762;23.598;2022-09-09T06:47:10;23.00;;;18.80;;
61358;SDS011;47228;46.762;23.598;2022-09-09T06:49:39;22.10;;;16.60;;
61358;SDS011;47228;46.762;23.598;2022-09-09T06:52:09;23.00;;;17.50;;
61358;SDS011;47228;46.762;23.598;2022-09-09T06:54:37;21.30;;;18.60;;
61358;SDS011;47228;46.762;23.598;2022-09-09T06:57:05;20.40;;;16.70;;
61358;SDS011;47228;46.762;23.598;2022-09-09T06:59:55;20.50;;;16.20;;
61358;SDS011;47228;46.762;23.598;2022-09-09T07:02:23;21.20;;;14.10;;
61358;SDS011;47228;46.762;23.598;2022-09-09T07:04:51;18.00;;;16.10;;
61358;SDS011;47228;46.762;23.598;2022-09-09T07:07:19;19.20;;;16.50;;
61358;SDS011;47228;46.762;23.598;2022-09-09T07:09:48;20.60;;;15.80;;
61358;SDS011;47228;46.762;23.598;2022-09-09T07:12:17;21.70;;;17.00;;
61358;SDS011;47228;46.762;23.598;2022-09-09T07:14:52;22.10;;;14.90;;
61358;SDS011;47228;46.762;23.598;2022-09-09T07:17:20;20.50;;;14.30;;
61358;SDS011;47228;46.762;23.598;2022-09-09T07:19:48;20.90;;;15.90;;
61358;SDS011;47228;46.762;23.598;2022-09-09T07:22:17;21.20;;;16.00;;
61358;SDS011;47228;46.762;23.598;2022-09-09T07:24:44;24.10;;;16.10;;
61358;SDS011;47228;46.762;23.598;2022-09-09T07:27:13;16.60;;;13.40;;
61358;SDS011;47228;46.762;23.598;2022-09-09T07:29:41;20.50;;;13.60;;
61358;SDS011;47228;46.762;23.598;2022-09-09T07:32:10;19.80;;;15.20;;
61358;SDS011;47228;46.762;23.598;2022-09-09T07:34:38;20.80;;;15.80;;
61358;SDS011;47228;46.762;23.598;2022-09-09T07:37:06;22.10;;;16.30;;
61358;SDS011;47228;46.762;23.598;2022-09-09T07:39:34;16.00;;;14.20;;
61358;SDS011;47228;46.762;23.598;2022-09-09T07:42:02;17.60;;;13.80;;
61358;SDS011;47228;46.762;23.598;2022-09-09T07:44:32;17.60;;;13.60;;
61358;SDS011;47228;46.762;23.598;2022-09-09T07:47:09;15.80;;;13.00;;
61358;SDS011;47228;46.762;23.598;2022-09-09T07:49:41;17.50;;;14.30;;
61358;SDS011;47228;46.762;23.598;2022-09-09T07:52:09;18.90;;;15.00;;
61358;SDS011;47228;46.762;23.598;2022-09-09T07:54:43;23.10;;;14.00;;
61358;SDS011;47228;46.762;23.598;2022-09-09T07:57:13;20.40;;;13.00;;
61358;SDS011;47228;46.762;23.598;2022-09-09T07:59:43;17.30;;;12.40;;
61358;SDS011;47228;46.762;23.598;2022-09-09T08:02:11;20.20;;;14.10;;
61358;SDS011;47228;46.762;23.598;2022-09-09T08:04:39;17.80;;;14.20;;
61358;SDS011;47228;46.762;23.598;2022-09-09T08:07:08;20.40;;;13.10;;
61358;SDS011;47228;46.762;23.598;2022-09-09T08:09:42;16.00;;;11.40;;
61358;SDS011;47228;46.762;23.598;2022-09-09T08:12:23;16.40;;;10.40;;
61358;SDS011;47228;46.762;23.598;2022-09-09T08:14:52;13.90;;;11.40;;
61358;SDS011;47228;46.762;23.598;2022-09-09T08:17:24;13.40;;;10.60;;
61358;SDS011;47228;46.762;23.598;2022-09-09T08:19:53;13.50;;;10.60;;
61358;SDS011;47228;46.762;23.598;2022-09-09T08:22:24;13.00;;;10.20;;
61358;SDS011;47228;46.762;23.598;2022-09-09T08:24:54;12.60;;;9.30;;
61358;SDS011;47228;46.762;23.598;2022-09-09T08:27:22;13.10;;;9.20;;
61358;SDS011;47228;46.762;23.598;2022-09-09T08:29:51;15.90;;;10.10;;
61358;SDS011;47228;46.762;23.598;2022-09-09T08:32:19;12.70;;;10.90;;
61358;SDS011;47228;46.762;23.598;2022-09-09T08:34:47;13.00;;;10.70;;
61358;SDS011;47228;46.762;23.598;2022-09-09T08:37:22;12.60;;;10.10;;
61358;SDS011;47228;46.762;23.598;2022-09-09T08:39:50;13.30;;;9.70;;
61358;SDS011;47228;46.762;23.598;2022-09-09T08:42:27;15.60;;;10.80;;
61358;SDS011;47228;46.762;23.598;2022-09-09T08:50:44;14.20;;;10.10;;
61358;SDS011;47228;46.762;23.598;2022-09-09T08:53:28;15.00;;;11.00;;
61358;SDS011;47228;46.762;23.598;2022-09-09T08:56:09;13.90;;;11.10;;
61358;SDS011;47228;46.762;23.598;2022-09-09T08:58:48;15.70;;;11.40;;
61358;SDS011;47228;46.762;23.598;2022-09-09T09:12:56;13.90;;;10.70;;
61358;SDS011;47228;46.762;23.598;2022-09-09T09:15:26;18.10;;;11.30;;
61358;SDS011;47228;46.762;23.598;2022-09-09T09:18:04;12.90;;;9.80;;
61358;SDS011;47228;46.762;23.598;2022-09-09T09:20:40;14.60;;;10.50;;
61358;SDS011;47228;46.762;23.598;2022-09-09T09:23:19;13.30;;;10.80;;
61358;SDS011;47228;46.762;23.598;2022-09-09T09:25:53;15.30;;;10.80;;
61358;SDS011;47228;46.762;23.598;2022-09-09T09:28:31;19.10;;;11.30;;
61358;SDS011;47228;46.762;23.598;2022-09-09T09:31:10;13.50;;;10.00;;
61358;SDS011;47228;46.762;23.598;2022-09-09T09:36:13;13.90;;;10.50;;
61358;SDS011;47228;46.762;23.598;2022-09-09T09:38:57;16.60;;;11.50;;
61358;SDS011;47228;46.762;23.598;2022-09-09T09:41:48;12.30;;;9.60;;
61358;SDS011;47228;46.762;23.598;2022-09-09T09:44:23;13.20;;;9.00;;
61358;SDS011;47228;46.762;23.598;2022-09-09T09:49:34;15.40;;;9.90;;
61358;SDS011;47228;46.762;23.598;2022-09-09T09:52:02;14.60;;;10.50;;
61358;SDS011;47228;46.762;23.598;2022-09-09T09:54:33;13.50;;;9.50;;
61358;SDS011;47228;46.762;23.598;2022-09-09T09:57:08;15.40;;;9.60;;
61358;SDS011;47228;46.762;23.598;2022-09-09T09:59:41;14.10;;;10.40;;
61358;SDS011;47228;46.762;23.598;2022-09-09T10:02:22;17.10;;;11.00;;
61358;SDS011;47228;46.762;23.598;2022-09-09T10:07:41;12.20;;;10.30;;
61358;SDS011;47228;46.762;23.598;2022-09-09T10:10:15;12.10;;;10.20;;
61358;SDS011;47228;46.762;23.598;2022-09-09T10:32:36;19.30;;;12.60;;
61358;SDS011;47228;46.762;23.598;2022-09-09T10:35:10;13.90;;;10.70;;
61358;SDS011;47228;46.762;23.598;2022-09-09T10:40:41;15.60;;;12.50;;
61358;SDS011;47228;46.762;23.598;2022-09-09T10:48:55;15.70;;;10.90;;
61358;SDS011;47228;46.762;23.598;2022-09-09T10:51:36;18.50;;;12.50;;
61358;SDS011;47228;46.762;23.598;2022-09-09T10:57:20;17.60;;;12.50;;
61358;SDS011;47228;46.762;23.598;2022-09-09T10:59:58;15.40;;;11.80;;
61358;SDS011;47228;46.762;23.598;2022-09-09T11:02:35;14.60;;;11.20;;
61358;SDS011;47228;46.762;23.598;2022-09-09T11:10:39;13.70;;;12.10;;
61358;SDS011;47228;46.762;23.598;2022-09-09T11:13:19;16.90;;;12.30;;
61358;SDS011;47228;46.762;23.598;2022-09-09T11:15:57;12.40;;;10.50;;
61358;SDS011;47228;46.762;23.598;2022-09-09T11:18:48;16.80;;;10.90;;
61358;SDS011;47228;46.762;23.598;2022-09-09T11:21:24;14.40;;;11.90;;
61358;SDS011;47228;46.762;23.598;2022-09-09T11:24:04;15.70;;;11.90;;
61358;SDS011;47228;46.762;23.598;2022-09-09T11:26:41;14.20;;;11.50;;
61358;SDS011;47228;46.762;23.598;2022-09-09T11:40:38;12.40;;;9.60;;
61358;SDS011;47228;46.762;23.598;2022-09-09T11:45:51;11.80;;;9.00;;
61358;SDS011;47228;46.762;23.598;2022-09-09T11:48:29;16.60;;;10.80;;
61358;SDS011;47228;46.762;23.598;2022-09-09T11:51:02;15.50;;;10.60;;
61358;SDS011;47228;46.762;23.598;2022-09-09T11:53:33;16.40;;;10.60;;
61358;SDS011;47228;46.762;23.598;2022-09-09T11:56:26;13.90;;;9.70;;
61358;SDS011;47228;46.762;23.598;2022-09-09T12:04:43;14.10;;;10.30;;
61358;SDS011;47228;46.762;23.598;2022-09-09T12:07:22;16.60;;;10.50;;
61358;SDS011;47228;46.762;23.598;2022-09-09T12:09:59;14.20;;;9.90;;
61358;SDS011;47228;46.762;23.598;2022-09-09T12:12:46;12.90;;;9.30;;
61358;SDS011;47228;46.762;23.598;2022-09-09T12:25:23;13.90;;;9.60;;
61358;SDS011;47228;46.762;23.598;2022-09-09T12:33:46;16.00;;;12.10;;
61358;SDS011;47228;46.762;23.598;2022-09-09T12:36:25;15.50;;;10.80;;
61358;SDS011;47228;46.762;23.598;2022-09-09T12:38:59;16.20;;;10.10;;
61358;SDS011;47228;46.762;23.598;2022-09-09T12:41:51;12.00;;;9.00;;
61358;SDS011;47228;46.762;23.598;2022-09-09T12:44:25;17.10;;;10.20;;
61358;SDS011;47228;46.762;23.598;2022-09-09T12:46:56;14.00;;;9.80;;
61358;SDS011;47228;46.762;23.598;2022-09-09T12:49:35;13.10;;;9.40;;
61358;SDS011;47228;46.762;23.598;2022-09-09T12:52:07;21.90;;;10.80;;
61358;SDS011;47228;46.762;23.598;2022-09-09T12:54:54;16.10;;;9.70;;
61358;SDS011;47228;46.762;23.598;2022-09-09T12:57:24;21.00;;;9.60;;
61358;SDS011;47228;46.762;23.598;2022-09-09T13:00:03;16.10;;;8.90;;
61358;SDS011;47228;46.762;23.598;2022-09-09T13:02:53;16.20;;;9.50;;
61358;SDS011;47228;46.762;23.598;2022-09-09T13:05:27;11.80;;;9.00;;
61358;SDS011;47228;46.762;23.598;2022-09-09T13:08:02;11.70;;;9.40;;
61358;SDS011;47228;46.762;23.598;2022-09-09T13:10:38;12.50;;;8.90;;
61358;SDS011;47228;46.762;23.598;2022-09-09T13:13:26;13.20;;;8.80;;
61358;SDS011;47228;46.762;23.598;2022-09-09T13:15:58;11.60;;;8.60;;
61358;SDS011;47228;46.762;23.598;2022-09-09T13:18:34;12.60;;;8.80;;
61358;SDS011;47228;46.762;23.598;2022-09-09T13:21:05;12.70;;;8.00;;
61358;SDS011;47228;46.762;23.598;2022-09-09T13:23:35;13.20;;;8.20;;
61358;SDS011;47228;46.762;23.598;2022-09-09T13:26:06;11.80;;;8.70;;
61358;SDS011;47228;46.762;23.598;2022-09-09T13:28:51;12.40;;;8.70;;
61358;SDS011;47228;46.762;23.598;2022-09-09T13:31:22;12.10;;;9.40;;
61358;SDS011;47228;46.762;23.598;2022-09-09T13:33:55;11.50;;;9.10;;
61358;SDS011;47228;46.762;23.598;2022-09-09T13:36:27;11.40;;;9.20;;
61358;SDS011;47228;46.762;23.598;2022-09-09T13:38:59;12.20;;;8.60;;
61358;SDS011;47228;46.762;23.598;2022-09-09T13:41:33;10.50;;;8.70;;
61358;SDS011;47228;46.762;23.598;2022-09-09T13:44:03;16.20;;;10.00;;
61358;SDS011;47228;46.762;23.598;2022-09-09T13:46:35;12.80;;;9.00;;
61358;SDS011;47228;46.762;23.598;2022-09-09T13:51:46;13.00;;;9.60;;
61358;SDS011;47228;46.762;23.598;2022-09-09T13:54:17;13.20;;;9.50;;
61358;SDS011;47228;46.762;23.598;2022-09-09T13:56:49;11.60;;;8.80;;
61358;SDS011;47228;46.762;23.598;2022-09-09T13:59:18;14.10;;;10.10;;
61358;SDS011;47228;46.762;23.598;2022-09-09T14:01:47;14.10;;;9.40;;
61358;SDS011;47228;46.762;23.598;2022-09-09T14:04:20;13.90;;;10.20;;
61358;SDS011;47228;46.762;23.598;2022-09-09T14:06:49;12.50;;;9.20;;
61358;SDS011;47228;46.762;23.598;2022-09-09T14:09:18;13.40;;;9.90;;
61358;SDS011;47228;46.762;23.598;2022-09-09T14:11:46;12.90;;;8.90;;
61358;SDS011;47228;46.762;23.598;2022-09-09T14:14:15;11.80;;;8.00;;
61358;SDS011;47228;46.762;23.598;2022-09-09T14:16:43;16.60;;;9.30;;
61358;SDS011;47228;46.762;23.598;2022-09-09T14:19:11;12.00;;;9.90;;
61358;SDS011;47228;46.762;23.598;2022-09-09T14:21:40;12.70;;;9.80;;
61358;SDS011;47228;46.762;23.598;2022-09-09T14:24:08;14.20;;;9.80;;
61358;SDS011;47228;46.762;23.598;2022-09-09T14:26:36;15.30;;;9.60;;
61358;SDS011;47228;46.762;23.598;2022-09-09T14:29:04;12.70;;;8.20;;
61358;SDS011;47228;46.762;23.598;2022-09-09T14:31:33;13.70;;;9.60;;
61358;SDS011;47228;46.762;23.598;2022-09-09T14:34:01;11.40;;;9.30;;
61358;SDS011;47228;46.762;23.598;2022-09-09T14:36:29;11.90;;;9.30;;
61358;SDS011;47228;46.762;23.598;2022-09-09T14:38:57;13.70;;;9.50;;
61358;SDS011;47228;46.762;23.598;2022-09-09T14:41:26;14.60;;;9.30;;
61358;SDS011;47228;46.762;23.598;2022-09-09T14:43:54;12.30;;;8.70;;
61358;SDS011;47228;46.762;23.598;2022-09-09T14:46:22;12.80;;;9.90;;
61358;SDS011;47228;46.762;23.598;2022-09-09T14:48:50;12.00;;;9.60;;
61358;SDS011;47228;46.762;23.598;2022-09-09T14:51:24;12.50;;;10.00;;
61358;SDS011;47228;46.762;23.598;2022-09-09T14:53:55;12.60;;;9.60;;
61358;SDS011;47228;46.762;23.598;2022-09-09T14:56:27;13.60;;;9.40;;
61358;SDS011;47228;46.762;23.598;2022-09-09T14:58:58;12.60;;;9.70;;
61358;SDS011;47228;46.762;23.598;2022-09-09T15:01:28;23.10;;;11.90;;
61358;SDS011;47228;46.762;23.598;2022-09-09T15:04:02;17.00;;;11.70;;
61358;SDS011;47228;46.762;23.598;2022-09-09T15:06:33;19.70;;;11.70;;
61358;SDS011;47228;46.762;23.598;2022-09-09T15:09:04;16.40;;;11.10;;
61358;SDS011;47228;46.762;23.598;2022-09-09T15:11:33;13.90;;;10.40;;
61358;SDS011;47228;46.762;23.598;2022-09-09T15:14:05;14.00;;;10.50;;
61358;SDS011;47228;46.762;23.598;2022-09-09T15:16:36;15.50;;;11.30;;
61358;SDS011;47228;46.762;23.598;2022-09-09T15:19:04;19.50;;;12.50;;
61358;SDS011;47228;46.762;23.598;2022-09-09T15:21:33;16.90;;;11.90;;
61358;SDS011;47228;46.762;23.598;2022-09-09T15:24:03;15.70;;;11.50;;
61358;SDS011;47228;46.762;23.598;2022-09-09T15:26:32;14.40;;;10.60;;
61358;SDS011;47228;46.762;23.598;2022-09-09T15:29:00;16.40;;;12.70;;
61358;SDS011;47228;46.762;23.598;2022-09-09T15:31:29;14.10;;;11.90;;
61358;SDS011;47228;46.762;23.598;2022-09-09T15:34:00;18.10;;;12.10;;
61358;SDS011;47228;46.762;23.598;2022-09-09T15:36:31;17.40;;;12.40;;
61358;SDS011;47228;46.762;23.598;2022-09-09T15:39:11;16.80;;;11.70;;
61358;SDS011;47228;46.762;23.598;2022-09-09T15:44:15;15.40;;;11.50;;
61358;SDS011;47228;46.762;23.598;2022-09-09T15:46:44;15.40;;;11.80;;
61358;SDS011;47228;46.762;23.598;2022-09-09T15:49:17;18.10;;;13.10;;
61358;SDS011;47228;46.762;23.598;2022-09-09T15:51:53;16.40;;;13.00;;
61358;SDS011;47228;46.762;23.598;2022-09-09T15:54:25;22.40;;;12.80;;
61358;SDS011;47228;46.762;23.598;2022-09-09T15:56:54;15.90;;;11.30;;
61358;SDS011;47228;46.762;23.598;2022-09-09T15:59:24;15.10;;;10.70;;
61358;SDS011;47228;46.762;23.598;2022-09-09T16:01:55;15.20;;;11.90;;
61358;SDS011;47228;46.762;23.598;2022-09-09T16:04:24;18.90;;;13.40;;
61358;SDS011;47228;46.762;23.598;2022-09-09T16:06:53;18.30;;;12.80;;
61358;SDS011;47228;46.762;23.598;2022-09-09T16:09:23;18.30;;;14.30;;
61358;SDS011;47228;46.762;23.598;2022-09-09T16:11:51;15.60;;;12.00;;
61358;SDS011;47228;46.762;23.598;2022-09-09T16:14:20;19.10;;;11.80;;
61358;SDS011;47228;46.762;23.598;2022-09-09T16:16:49;13.30;;;11.90;;
61358;SDS011;47228;46.762;23.598;2022-09-09T16:19:17;14.80;;;13.00;;
61358;SDS011;47228;46.762;23.598;2022-09-09T16:21:46;17.20;;;12.60;;
61358;SDS011;47228;46.762;23.598;2022-09-09T16:24:17;16.60;;;13.00;;
61358;SDS011;47228;46.762;23.598;2022-09-09T16:26:47;17.30;;;13.00;;
61358;SDS011;47228;46.762;23.598;2022-09-09T16:29:17;21.10;;;12.30;;
61358;SDS011;47228;46.762;23.598;2022-09-09T16:31:46;21.10;;;13.10;;
61358;SDS011;47228;46.762;23.598;2022-09-09T16:34:16;17.10;;;13.00;;
61358;SDS011;47228;46.762;23.598;2022-09-09T16:36:45;18.20;;;13.80;;
61358;SDS011;47228;46.762;23.598;2022-09-09T16:39:15;16.50;;;13.20;;
61358;SDS011;47228;46.762;23.598;2022-09-09T16:41:45;16.10;;;11.40;;
61358;SDS011;47228;46.762;23.598;2022-09-09T16:44:15;16.00;;;11.50;;
61358;SDS011;47228;46.762;23.598;2022-09-09T16:46:47;15.10;;;13.00;;
61358;SDS011;47228;46.762;23.598;2022-09-09T16:49:16;18.00;;;12.90;;
61358;SDS011;47228;46.762;23.598;2022-09-09T16:51:45;18.30;;;13.90;;
61358;SDS011;47228;46.762;23.598;2022-09-09T16:54:15;15.70;;;12.80;;
61358;SDS011;47228;46.762;23.598;2022-09-09T16:56:45;18.70;;;12.10;;
61358;SDS011;47228;46.762;23.598;2022-09-09T16:59:16;21.90;;;13.10;;
61358;SDS011;47228;46.762;23.598;2022-09-09T17:01:47;19.00;;;13.30;;
61358;SDS011;47228;46.762;23.598;2022-09-09T17:04:17;22.00;;;14.50;;
61358;SDS011;47228;46.762;23.598;2022-09-09T17:06:49;19.20;;;13.40;;
61358;SDS011;47228;46.762;23.598;2022-09-09T17:09:19;19.90;;;15.10;;
61358;SDS011;47228;46.762;23.598;2022-09-09T17:11:50;22.70;;;16.80;;
61358;SDS011;47228;46.762;23.598;2022-09-09T17:14:20;21.60;;;17.00;;
61358;SDS011;47228;46.762;23.598;2022-09-09T17:16:49;25.80;;;17.30;;
61358;SDS011;47228;46.762;23.598;2022-09-09T17:19:17;21.30;;;16.60;;
61358;SDS011;47228;46.762;23.598;2022-09-09T17:21:45;22.80;;;16.20;;
61358;SDS011;47228;46.762;23.598;2022-09-09T17:24:35;22.60;;;17.10;;
61358;SDS011;47228;46.762;23.598;2022-09-09T17:27:06;19.90;;;15.50;;